Terminal Aerodrome Forecast
Issued by NWS El Paso, TX

Current Version | Previous Version | Text Only | Print | Product List | Glossary On
Versions: 1 2 3 4 5 6 7 8 9 10 11 12 13 14 15 16 17
000
FTUS44 KEPZ 311136
TAFELP
TAF
KELP 311136Z 3112/0112 07006KT P6SM VCSH SCT080 OVC120
     FM311500 09007KT P6SM FEW080 BKN250
     FM312000 15008KT P6SM SCT080 SCT250=

USA.gov is the U.S. government's official web portal to all federal, state and local government web resources and services.